createdAt,value
2022-10-01T00:02:26.005Z,100676.34
2022-10-01T00:04:53.822Z,100665.09
2022-10-01T00:07:45.743Z,100659.31
2022-10-01T00:10:15.341Z,100658.69
2022-10-01T00:12:59.329Z,100656.84
2022-10-01T00:15:40.867Z,100662.19
2022-10-01T00:18:14.065Z,100653.59
2022-10-01T00:20:43.712Z,100648.03
2022-10-01T00:23:13.504Z,100653.91
2022-10-01T00:25:42.105Z,100640.91
2022-10-01T00:28:10.902Z,100643.22
2022-10-01T00:30:40.539Z,100633.75
2022-10-01T00:33:08.456Z,100638.75
2022-10-01T00:35:37.492Z,100637.00
2022-10-01T00:38:05.250Z,100636.50
2022-10-01T00:40:33.040Z,100650.44
2022-10-01T00:43:00.842Z,100650.31
2022-10-01T00:45:29.857Z,100654.69
2022-10-01T00:48:00.577Z,100651.06
2022-10-01T00:50:35.845Z,100653.34
2022-10-01T00:53:09.076Z,100645.06
2022-10-01T00:55:43.602Z,100651.34
2022-10-01T00:58:14.533Z,100653.59
2022-10-01T01:00:43.339Z,100650.09
2022-10-01T01:03:12.603Z,100664.13
2022-10-01T01:05:40.604Z,100662.03
2022-10-01T01:08:09.784Z,100669.69
2022-10-01T01:11:01.415Z,100673.78
2022-10-01T01:13:38.460Z,100672.00
2022-10-01T01:16:34.574Z,100676.31
2022-10-01T01:19:10.653Z,100673.56
2022-10-01T01:21:45.715Z,100669.00
2022-10-01T01:24:44.113Z,100681.03
2022-10-01T01:27:31.186Z,100683.31
2022-10-01T01:30:08.574Z,100687.81
2022-10-01T01:33:04.809Z,100693.34
2022-10-01T01:35:39.609Z,100688.88
2022-10-01T01:38:22.109Z,100697.69
2022-10-01T01:40:52.113Z,100683.28
2022-10-01T01:43:25.253Z,100692.00
2022-10-01T01:45:56.775Z,100687.28
2022-10-01T01:48:25.156Z,100678.22
2022-10-01T01:51:24.988Z,100686.69
2022-10-01T01:53:54.334Z,100681.06
2022-10-01T01:56:22.353Z,100676.91
2022-10-01T01:58:51.319Z,100676.47
2022-10-01T02:01:51.569Z,100686.53
2022-10-01T02:04:28.503Z,100677.50
2022-10-01T02:07:11.448Z,100684.66
2022-10-01T02:09:47.269Z,100686.59
2022-10-01T02:12:42.640Z,100684.75
2022-10-01T02:15:20.867Z,100681.31
2022-10-01T02:18:06.633Z,100677.34
2022-10-01T02:20:42.590Z,100676.03
2022-10-01T02:23:17.336Z,100670.00
2022-10-01T02:25:51.535Z,100675.34
2022-10-01T02:28:23.023Z,100677.56
2022-10-01T02:30:54.243Z,100681.06
2022-10-01T02:33:27.941Z,100678.72
2022-10-01T02:35:58.701Z,100678.59
2022-10-01T02:38:27.150Z,100679.25
2022-10-01T02:40:58.957Z,100671.56
2022-10-01T02:43:34.011Z,100675.47
2022-10-01T02:46:18.524Z,100669.34
2022-10-01T02:48:47.229Z,100664.97
2022-10-01T02:51:43.574Z,100664.13
2022-10-01T02:54:23.124Z,100660.06
2022-10-01T02:57:11.781Z,100663.53
2022-10-01T02:59:42.954Z,100663.53
2022-10-01T03:02:11.461Z,100657.00
2022-10-01T03:04:39.341Z,100664.09
2022-10-01T03:07:07.263Z,100667.69
2022-10-01T03:09:36.889Z,100667.59
2022-10-01T03:12:06.671Z,100670.84
2022-10-01T03:14:34.574Z,100690.75
2022-10-01T03:17:02.365Z,100681.94
2022-10-01T03:19:30.124Z,100694.00
2022-10-01T03:21:57.950Z,100687.66
2022-10-01T03:24:26.020Z,100700.84
2022-10-01T03:26:55.909Z,100696.47
2022-10-01T03:29:27.207Z,100694.50
2022-10-01T03:31:55.307Z,100681.34
2022-10-01T03:34:24.357Z,100688.00
2022-10-01T03:36:52.907Z,100684.50
2022-10-01T03:39:20.967Z,100693.38
2022-10-01T03:41:48.923Z,100697.44
2022-10-01T03:44:16.954Z,100699.09
2022-10-01T03:46:44.955Z,100692.47
2022-10-01T03:49:12.792Z,100695.91
2022-10-01T03:51:40.660Z,100688.00
2022-10-01T03:54:09.267Z,100698.38
2022-10-01T03:56:37.900Z,100697.88
2022-10-01T03:59:05.834Z,100703.50
2022-10-01T04:01:33.838Z,100700.19
2022-10-01T04:04:02.224Z,100694.50
2022-10-01T04:06:33.240Z,100701.41
2022-10-01T04:09:02.180Z,100686.56
2022-10-01T04:11:30.394Z,100686.25
2022-10-01T04:13:58.343Z,100699.47
2022-10-01T04:16:26.198Z,100700.38
2022-10-01T04:18:54.176Z,100698.53
2022-10-01T04:21:22.004Z,100706.91
2022-10-01T04:23:51.167Z,100711.97
2022-10-01T04:26:19.324Z,100704.31
2022-10-01T04:28:47.729Z,100706.22
2022-10-01T04:31:24.896Z,100699.94
2022-10-01T04:33:55.123Z,100699.50
2022-10-01T04:36:24.505Z,100704.78
2022-10-01T04:38:57.982Z,100700.09
2022-10-01T04:41:31.116Z,100686.94
2022-10-01T04:44:00.340Z,100689.25
2022-10-01T04:46:31.407Z,100690.22
2022-10-01T04:48:59.373Z,100686.03
2022-10-01T04:51:30.192Z,100686.41
2022-10-01T04:53:58.051Z,100673.28
2022-10-01T04:56:26.166Z,100683.44
2022-10-01T04:58:54.008Z,100673.84
2022-10-01T05:01:22.240Z,100678.25
2022-10-01T05:03:50.211Z,100678.25
2022-10-01T05:06:20.935Z,100678.25
2022-10-01T05:08:50.176Z,100684.34
2022-10-01T05:11:19.039Z,100679.06
2022-10-01T05:13:46.840Z,100695.94
2022-10-01T05:16:14.751Z,100695.66
2022-10-01T05:18:43.561Z,100697.56
2022-10-01T05:21:11.952Z,100702.06
2022-10-01T05:23:39.760Z,100699.16
2022-10-01T05:26:08.199Z,100700.44
2022-10-01T05:28:36.883Z,100706.94
2022-10-01T05:31:05.043Z,100700.47
2022-10-01T05:33:34.342Z,100701.28
2022-10-01T05:36:03.683Z,100710.16
2022-10-01T05:38:31.486Z,100716.16
2022-10-01T05:40:59.270Z,100717.28
2022-10-01T05:43:27.396Z,100717.03
2022-10-01T05:45:55.500Z,100716.59
2022-10-01T05:48:23.415Z,100731.75
2022-10-01T05:50:51.907Z,100733.47
2022-10-01T05:53:19.681Z,100735.31
2022-10-01T05:55:47.537Z,100734.22
2022-10-01T05:58:16.541Z,100743.44
2022-10-01T06:00:44.456Z,100743.88
2022-10-01T06:03:13.202Z,100746.53
2022-10-01T06:05:44.217Z,100758.22
2022-10-01T06:08:12.260Z,100764.34
2022-10-01T06:10:40.468Z,100764.03
2022-10-01T06:13:08.408Z,100773.34
2022-10-01T06:15:38.280Z,100784.97
2022-10-01T06:18:09.212Z,100778.94
2022-10-01T06:20:38.492Z,100784.13
2022-10-01T06:23:12.658Z,100788.00
2022-10-01T06:25:42.089Z,100785.72
2022-10-01T06:28:12.113Z,100790.81
2022-10-01T06:30:40.401Z,100790.34
2022-10-01T06:33:11.372Z,100793.22
2022-10-01T06:35:49.789Z,100802.03
2022-10-01T06:38:22.805Z,100804.00
2022-10-01T06:40:58.856Z,100803.56
2022-10-01T06:43:28.915Z,100812.94
2022-10-01T06:45:57.097Z,100807.22
2022-10-01T06:48:24.995Z,100803.06
2022-10-01T06:50:53.251Z,100803.13
2022-10-01T06:53:21.069Z,100802.88
2022-10-01T06:55:50.112Z,100811.84
2022-10-01T06:58:21.126Z,100802.84
2022-10-01T07:00:50.147Z,100800.66
2022-10-01T07:03:20.960Z,100809.13
2022-10-01T07:05:50.401Z,100808.84
2022-10-01T07:08:18.567Z,100814.41
2022-10-01T07:10:47.379Z,100815.06
2022-10-01T07:13:17.690Z,100818.53
2022-10-01T07:15:46.122Z,100816.56
2022-10-01T07:18:14.638Z,100830.19
2022-10-01T07:20:42.460Z,100830.22
2022-10-01T07:23:14.976Z,100813.44
2022-10-01T07:25:43.939Z,100816.38
2022-10-01T07:28:19.875Z,100816.22
2022-10-01T07:31:07.375Z,100818.84
2022-10-01T07:33:35.222Z,100814.28
2022-10-01T07:36:06.722Z,100812.81
2022-10-01T07:38:35.304Z,100811.22
2022-10-01T07:41:03.775Z,100822.13
2022-10-01T07:43:33.525Z,100827.19
2022-10-01T07:46:02.976Z,100829.91
2022-10-01T07:48:31.275Z,100822.88
2022-10-01T07:50:59.074Z,100826.44
2022-10-01T07:53:27.735Z,100826.41
2022-10-01T07:55:55.555Z,100831.16
2022-10-01T07:58:24.333Z,100834.41
2022-10-01T08:00:57.185Z,100836.09
2022-10-01T08:03:25.656Z,100839.72
2022-10-01T08:05:54.400Z,100840.00
2022-10-01T08:08:23.883Z,100842.47
2022-10-01T08:10:55.699Z,100852.59
2022-10-01T08:13:25.751Z,100863.91
2022-10-01T08:15:54.909Z,100869.06
2022-10-01T08:18:25.560Z,100858.63
2022-10-01T08:20:53.642Z,100866.56
2022-10-01T08:23:21.985Z,100864.28
2022-10-01T08:25:50.071Z,100865.75
2022-10-01T08:28:18.449Z,100847.81
2022-10-01T08:30:46.419Z,100856.22
2022-10-01T08:33:14.692Z,100856.72
2022-10-01T08:35:46.379Z,100856.44
2022-10-01T08:38:14.761Z,100859.78
2022-10-01T08:40:49.416Z,100861.19
2022-10-01T08:43:32.811Z,100863.44
2022-10-01T08:46:23.123Z,100855.16
2022-10-01T08:49:22.540Z,100861.56
2022-10-01T08:52:03.674Z,100856.84
2022-10-01T08:54:36.886Z,100866.78
2022-10-01T08:57:12.508Z,100877.06
2022-10-01T08:59:42.488Z,100874.16
2022-10-01T09:02:24.164Z,100872.03
2022-10-01T09:05:01.445Z,100871.91
2022-10-01T09:07:41.890Z,100867.84
2022-10-01T09:10:36.698Z,100870.53
2022-10-01T09:13:23.008Z,100876.84
2022-10-01T09:16:23.099Z,100867.56
2022-10-01T09:18:59.265Z,100870.88
2022-10-01T09:21:44.639Z,100875.44
2022-10-01T09:24:22.512Z,100875.91
2022-10-01T09:26:50.607Z,100876.03
2022-10-01T09:29:27.714Z,100865.00
2022-10-01T09:31:57.368Z,100865.00
2022-10-01T09:34:34.703Z,100864.25
2022-10-01T09:37:14.993Z,100855.94
2022-10-01T09:39:51.431Z,100862.13
2022-10-01T09:42:20.858Z,100856.28
2022-10-01T09:44:49.962Z,100857.66
2022-10-01T09:47:21.999Z,100855.19
2022-10-01T09:49:51.396Z,100858.09
2022-10-01T09:52:28.627Z,100858.63
2022-10-01T09:55:02.800Z,100849.03
2022-10-01T09:57:39.541Z,100851.84
2022-10-01T10:00:18.482Z,100850.00
2022-10-01T10:02:54.677Z,100843.34
2022-10-01T10:05:27.783Z,100847.16
2022-10-01T10:08:03.977Z,100851.59
2022-10-01T10:10:35.919Z,100840.31
2022-10-01T10:13:10.887Z,100841.00
2022-10-01T10:15:49.652Z,100823.84
2022-10-01T10:18:28.265Z,100835.53
2022-10-01T10:20:59.300Z,100822.25
2022-10-01T10:23:29.462Z,100821.53
2022-10-01T10:26:03.114Z,100804.59
2022-10-01T10:31:39.996Z,100812.13
2022-10-01T10:34:32.726Z,100806.03
2022-10-01T10:37:09.037Z,100807.25
2022-10-01T10:39:41.531Z,100806.94
2022-10-01T10:42:15.830Z,100808.06
2022-10-01T10:44:47.835Z,100807.50
2022-10-01T10:47:18.891Z,100805.84
2022-10-01T10:50:39.579Z,100802.84
2022-10-01T10:53:25.123Z,100790.13
2022-10-01T10:56:05.390Z,100797.13
2022-10-01T10:58:40.533Z,100801.38
2022-10-01T11:01:13.868Z,100797.88
2022-10-01T11:03:56.296Z,100802.25
2022-10-01T11:06:24.611Z,100807.59
2022-10-01T11:09:07.360Z,100801.38
2022-10-01T11:11:57.790Z,100793.47
2022-10-01T11:14:35.514Z,100786.72
2022-10-01T11:17:34.551Z,100771.28
2022-10-01T11:20:32.566Z,100779.59
2022-10-01T11:23:27.726Z,100769.59
2022-10-01T11:25:58.821Z,100776.19
2022-10-01T11:28:33.311Z,100787.31
2022-10-01T11:31:17.690Z,100781.66
2022-10-01T11:34:11.392Z,100789.56
2022-10-01T11:37:00.466Z,100810.72
2022-10-01T11:39:32.782Z,100804.00
2022-10-01T11:42:10.590Z,100815.69
2022-10-01T11:45:03.382Z,100800.56
2022-10-01T11:47:44.450Z,100795.50
2022-10-01T11:50:20.586Z,100804.44
2022-10-01T11:53:09.030Z,100790.03
2022-10-01T11:56:12.667Z,100787.06
2022-10-01T11:59:02.576Z,100784.28
2022-10-01T12:01:42.505Z,100775.91
2022-10-01T12:04:16.761Z,100778.34
2022-10-01T12:07:01.895Z,100768.63
2022-10-01T12:09:53.288Z,100766.38
2022-10-01T12:12:31.513Z,100758.81
2022-10-01T12:15:17.112Z,100752.94
2022-10-01T12:18:14.585Z,100754.19
2022-10-01T12:20:51.971Z,100756.28
2022-10-01T12:23:30.090Z,100746.47
2022-10-01T12:26:13.500Z,100745.41
2022-10-01T12:28:55.583Z,100745.59
2022-10-01T12:31:38.215Z,100747.00
2022-10-01T12:34:14.536Z,100739.09
2022-10-01T12:36:58.229Z,100721.53
2022-10-01T12:40:10.439Z,100721.72
2022-10-01T12:42:59.890Z,100730.72
2022-10-01T12:46:18.681Z,100733.16
2022-10-01T12:49:15.933Z,100731.75
2022-10-01T12:51:56.166Z,100727.75
2022-10-01T12:55:22.586Z,100725.00
2022-10-01T12:58:01.427Z,100723.44
2022-10-01T13:00:42.433Z,100718.41
2022-10-01T13:03:10.911Z,100721.22
2022-10-01T13:05:57.781Z,100714.75
2022-10-01T13:08:35.011Z,100705.00
2022-10-01T13:11:10.029Z,100698.25
2022-10-01T13:13:41.086Z,100693.25
2022-10-01T13:16:09.771Z,100692.47
2022-10-01T13:19:04.841Z,100693.38
2022-10-01T13:22:08.708Z,100687.78
2022-10-01T13:25:08.729Z,100690.19
2022-10-01T13:27:51.905Z,100676.78
2022-10-01T13:30:24.228Z,100681.63
2022-10-01T13:32:57.974Z,100672.69
2022-10-01T13:35:35.572Z,100666.03
2022-10-01T13:38:29.300Z,100670.66
2022-10-01T13:41:01.592Z,100675.31
2022-10-01T13:43:32.160Z,100674.31
2022-10-01T13:46:10.520Z,100673.94
2022-10-01T13:48:49.532Z,100664.28
2022-10-01T13:51:17.848Z,100664.34
2022-10-01T13:53:50.164Z,100656.88
2022-10-01T13:56:35.561Z,100658.81
2022-10-01T13:59:20.876Z,100654.88
2022-10-01T14:01:49.235Z,100666.66
2022-10-01T14:04:44.316Z,100670.72
2022-10-01T14:07:26.894Z,100681.94
2022-10-01T14:09:59.555Z,100671.28
2022-10-01T14:13:17.322Z,100657.72
2022-10-01T14:15:59.990Z,100657.97
2022-10-01T14:18:38.267Z,100646.47
2022-10-01T14:21:26.070Z,100648.00
2022-10-01T14:24:07.006Z,100647.94
2022-10-01T14:26:58.573Z,100642.47
2022-10-01T14:29:38.068Z,100638.41
2022-10-01T14:32:34.183Z,100640.06
2022-10-01T14:35:05.546Z,100633.16
2022-10-01T14:37:39.607Z,100632.88
2022-10-01T14:40:21.886Z,100635.16
2022-10-01T14:43:15.398Z,100625.91
2022-10-01T14:46:16.846Z,100624.97
2022-10-01T14:48:57.366Z,100617.72
2022-10-01T14:51:31.249Z,100623.38
2022-10-01T14:54:00.901Z,100628.34
2022-10-01T14:56:29.602Z,100622.88
2022-10-01T14:59:03.424Z,100619.88
2022-10-01T15:01:31.708Z,100615.13
2022-10-01T15:04:00.022Z,100617.81
2022-10-01T15:06:30.158Z,100622.81
2022-10-01T15:09:18.729Z,100617.88
2022-10-01T15:11:51.947Z,100618.41
2022-10-01T15:14:24.500Z,100616.28
2022-10-01T15:17:08.170Z,100615.25
2022-10-01T15:19:45.449Z,100614.97
2022-10-01T15:22:17.749Z,100619.94
2022-10-01T15:24:49.726Z,100609.50
2022-10-01T15:27:20.371Z,100602.50
2022-10-01T15:29:56.245Z,100594.19
2022-10-01T15:32:28.513Z,100595.56
2022-10-01T15:35:01.571Z,100602.31
2022-10-01T15:37:34.550Z,100610.31
2022-10-01T15:40:09.917Z,100621.53
2022-10-01T15:42:38.222Z,100598.59
2022-10-01T15:45:09.507Z,100608.91
2022-10-01T15:47:40.144Z,100611.00
2022-10-01T15:50:11.649Z,100617.09
2022-10-01T15:52:50.980Z,100614.13
2022-10-01T15:55:46.175Z,100627.59
2022-10-01T15:58:21.682Z,100610.88
2022-10-01T16:01:01.832Z,100608.91
2022-10-01T16:03:34.438Z,100616.09
2022-10-01T16:06:08.568Z,100605.59
2022-10-01T16:09:06.179Z,100610.84
2022-10-01T16:12:19.750Z,100610.56
2022-10-01T16:15:00.837Z,100612.88
2022-10-01T16:17:37.172Z,100610.31
2022-10-01T16:20:14.717Z,100612.56
2022-10-01T16:22:44.856Z,100606.66
2022-10-01T16:25:19.744Z,100600.94
2022-10-01T16:28:32.732Z,100601.66
2022-10-01T16:31:01.496Z,100613.84
2022-10-01T16:33:29.628Z,100615.44
2022-10-01T16:36:11.205Z,100624.38
2022-10-01T16:38:39.860Z,100630.03
2022-10-01T16:41:09.905Z,100620.88
2022-10-01T16:43:39.471Z,100620.66
2022-10-01T17:32:30.366Z,100679.25
2022-10-01T17:34:59.325Z,100674.22
2022-10-01T17:37:27.503Z,100683.13
2022-10-01T17:39:55.794Z,100683.31
2022-10-01T17:42:24.178Z,100687.88
2022-10-01T17:44:52.558Z,100685.13
2022-10-01T17:47:23.253Z,100696.09
2022-10-01T17:49:51.429Z,100688.13
2022-10-01T17:52:19.816Z,100680.00
2022-10-01T17:54:47.955Z,100692.56
2022-10-01T17:57:16.125Z,100690.25
2022-10-01T17:59:44.095Z,100702.00
2022-10-01T18:02:36.655Z,100693.41
2022-10-01T18:05:04.633Z,100686.88
2022-10-01T18:07:32.281Z,100701.59
2022-10-01T18:10:01.164Z,100720.03
2022-10-01T18:12:29.219Z,100725.94
2022-10-01T18:14:56.805Z,100735.59
2022-10-01T18:17:24.624Z,100744.56
2022-10-01T18:19:54.364Z,100741.47
2022-10-01T18:22:22.120Z,100747.00
2022-10-01T18:24:49.868Z,100758.41
2022-10-01T18:27:17.903Z,100753.69
2022-10-01T18:29:45.547Z,100749.59
2022-10-01T18:32:31.428Z,100745.53
2022-10-01T18:35:02.252Z,100752.22
2022-10-01T18:37:52.386Z,100758.38
2022-10-01T18:40:30.596Z,100758.53
2022-10-01T18:43:01.635Z,100765.84
2022-10-01T18:45:46.697Z,100761.13
2022-10-01T18:48:33.088Z,100745.84
2022-10-01T18:51:21.448Z,100750.06
2022-10-01T18:54:11.529Z,100751.38
2022-10-01T18:57:10.762Z,100763.44
2022-10-01T18:59:46.639Z,100753.53
2022-10-01T19:02:49.445Z,100756.59
2022-10-01T19:05:30.133Z,100756.59
2022-10-01T19:08:23.664Z,100766.06
2022-10-01T19:11:18.153Z,100765.69
2022-10-01T19:13:55.419Z,100767.34
2022-10-01T19:16:22.999Z,100769.94
2022-10-01T19:19:14.623Z,100773.72
2022-10-01T19:22:15.137Z,100765.09
2022-10-01T19:25:08.849Z,100766.41
2022-10-01T19:28:02.293Z,100772.41
2022-10-01T19:30:42.009Z,100768.19
2022-10-01T19:33:11.392Z,100763.81
2022-10-01T19:35:48.488Z,100757.97
2022-10-01T19:38:27.004Z,100773.91
2022-10-01T19:41:03.658Z,100777.81
2022-10-01T19:43:48.041Z,100795.28
2022-10-01T19:46:29.440Z,100785.16
2022-10-01T19:49:13.376Z,100786.09
2022-10-01T19:51:51.631Z,100782.38
2022-10-01T19:54:24.714Z,100777.28
2022-10-01T19:56:55.354Z,100782.97
2022-10-01T19:59:23.181Z,100790.47
2022-10-01T20:02:03.210Z,100775.81
2022-10-01T20:04:38.403Z,100782.97
2022-10-01T20:07:12.245Z,100789.91
2022-10-01T20:09:47.468Z,100791.06
2022-10-01T20:12:24.151Z,100797.88
2022-10-01T20:15:11.641Z,100797.03
2022-10-01T20:18:03.901Z,100799.78
2022-10-01T20:20:43.716Z,100812.94
2022-10-01T20:23:27.494Z,100801.06
2022-10-01T20:26:20.340Z,100809.84
2022-10-01T20:29:19.310Z,100813.41
2022-10-01T20:32:00.318Z,100818.00
2022-10-01T20:34:46.171Z,100827.22
2022-10-01T20:37:22.729Z,100827.22
2022-10-01T20:40:02.926Z,100821.31
2022-10-01T20:42:38.582Z,100829.44
2022-10-01T20:45:16.952Z,100838.03
2022-10-01T20:47:52.257Z,100834.25
2022-10-01T20:50:25.589Z,100829.88
2022-10-01T20:53:08.678Z,100820.00
2022-10-01T20:55:48.161Z,100829.59
2022-10-01T20:58:36.200Z,100816.09
2022-10-01T21:01:10.435Z,100824.38
2022-10-01T21:03:49.425Z,100829.25
2022-10-01T21:06:26.695Z,100843.38
2022-10-01T21:09:03.878Z,100828.28
2022-10-01T21:11:34.807Z,100839.81
2022-10-01T21:14:14.681Z,100846.00
2022-10-01T21:16:54.438Z,100849.25
2022-10-01T21:20:04.639Z,100853.47
2022-10-01T21:23:14.856Z,100865.22
2022-10-01T21:25:57.135Z,100861.22
2022-10-01T21:28:46.136Z,100861.31
2022-10-01T21:31:51.236Z,100868.78
2022-10-01T21:34:19.158Z,100872.81
2022-10-01T21:37:12.684Z,100867.13
2022-10-01T21:40:12.779Z,100865.13
2022-10-01T21:42:56.729Z,100873.72
2022-10-01T21:45:46.095Z,100883.03
2022-10-01T21:48:32.145Z,100886.47
2022-10-01T21:51:38.945Z,100891.88
2022-10-01T21:54:30.501Z,100880.09
2022-10-01T21:57:43.500Z,100878.00
2022-10-01T22:00:20.704Z,100888.84
2022-10-01T22:02:53.731Z,100885.88
2022-10-01T22:05:39.277Z,100898.25
2022-10-01T22:08:21.948Z,100899.69
2022-10-01T22:10:58.841Z,100882.13
2022-10-01T22:13:33.432Z,100886.41
2022-10-01T22:16:07.405Z,100884.25
2022-10-01T22:18:47.364Z,100895.34
2022-10-01T22:21:25.188Z,100895.06
2022-10-01T22:24:03.961Z,100890.34
2022-10-01T22:26:37.821Z,100894.16
2022-10-01T22:29:07.887Z,100882.56
2022-10-01T22:31:38.062Z,100897.50
2022-10-01T22:34:12.680Z,100893.84
2022-10-01T22:36:52.950Z,100895.59
2022-10-01T22:39:30.834Z,100888.19
2022-10-01T22:42:27.189Z,100893.41
2022-10-01T22:44:56.197Z,100890.16
2022-10-01T22:47:42.581Z,100891.41
2022-10-01T22:50:10.321Z,100899.56
2022-10-01T22:52:39.345Z,100904.44
2022-10-01T22:55:30.823Z,100906.41
2022-10-01T22:58:22.901Z,100908.34
2022-10-01T23:00:56.422Z,100901.56
2022-10-01T23:03:51.748Z,100904.53
2022-10-01T23:06:55.785Z,100918.22
2022-10-01T23:09:49.697Z,100931.47
2022-10-01T23:12:37.385Z,100932.91
2022-10-01T23:15:10.956Z,100928.22
2022-10-01T23:17:51.968Z,100938.13
2022-10-01T23:20:31.697Z,100937.91
2022-10-01T23:23:24.307Z,100953.25
2022-10-01T23:26:16.637Z,100966.75
2022-10-01T23:28:46.968Z,100963.25
2022-10-01T23:31:38.967Z,100960.94
2022-10-01T23:34:36.189Z,100970.91
2022-10-01T23:37:19.116Z,100966.53
2022-10-01T23:40:00.249Z,100974.22
2022-10-01T23:42:35.813Z,100971.75
2022-10-01T23:45:38.599Z,100976.84
2022-10-01T23:48:10.885Z,100983.38
2022-10-01T23:50:44.655Z,100984.69
2022-10-01T23:53:17.424Z,100979.50
2022-10-01T23:56:09.526Z,100978.84
2022-10-01T23:58:50.820Z,100972.09
